Time;durP1;ratioP1;P1;durP2;ratioP2;P2;SDS_P1;SDS_P2;PMS_P1;PMS_P2;Temp;Humidity;BMP_temperature;BMP_pressure;BME280_temperature;BME280_humidity;BME280_pressure;Samples;Min_cycle;Max_cycle;Signal;HPM_P1;HPM_P2
2022/12/30 00:00:16;;;;;;;11.37;2.73;;;6.80;99.90;;;;;;463199;257;28961;-75
2022/12/30 00:02:18;;;;;;;11.23;2.73;;;6.80;99.90;;;;;;463214;257;27818;-76
2022/12/30 00:04:19;;;;;;;7.43;2.50;;;6.80;99.90;;;;;;463213;257;28068;-77
2022/12/30 00:06:20;;;;;;;10.73;2.93;;;6.80;99.90;;;;;;463220;256;28200;-79
2022/12/30 00:10:41;;;;;;;10.73;2.67;;;6.60;99.90;;;;;;463220;257;27842;-75
2022/12/30 00:33:40;;;;;;;7.70;2.73;;;6.40;99.90;;;;;;463189;257;28170;-74
2022/12/30 00:35:41;;;;;;;11.52;3.37;;;6.30;99.90;;;;;;463217;257;28861;-77
2022/12/30 00:37:42;;;;;;;6.67;2.50;;;6.30;99.90;;;;;;463224;257;27930;-75
2022/12/30 00:39:44;;;;;;;11.40;2.70;;;6.30;99.90;;;;;;463201;257;28359;-79
2022/12/30 00:44:04;;;;;;;10.13;2.50;;;6.20;99.90;;;;;;463190;257;27975;-75
2022/12/30 00:46:06;;;;;;;9.10;2.40;;;6.10;99.90;;;;;;463249;257;29374;-81
2022/12/30 00:57:25;;;;;;;4.45;2.42;;;6.00;99.90;;;;;;462458;257;27509;-76
2022/12/30 00:59:26;;;;;;;14.10;2.87;;;6.00;99.90;;;;;;462509;257;27567;-75
2022/12/30 01:01:27;;;;;;;8.05;2.60;;;5.90;99.90;;;;;;462999;257;27507;-76
2022/12/30 01:03:28;;;;;;;7.90;2.30;;;6.00;99.90;;;;;;463281;257;27470;-75
2022/12/30 01:05:30;;;;;;;8.65;2.75;;;6.00;99.90;;;;;;463258;257;27961;-80
2022/12/30 01:07:31;;;;;;;7.25;2.58;;;6.00;99.90;;;;;;463232;257;27981;-80
2022/12/30 01:09:32;;;;;;;14.48;2.95;;;6.00;99.90;;;;;;463239;257;27500;-79
2022/12/30 01:11:33;;;;;;;8.18;2.65;;;6.00;99.90;;;;;;463301;257;27566;-76
2022/12/30 01:13:35;;;;;;;8.98;3.12;;;6.00;99.90;;;;;;463277;257;27522;-79
2022/12/30 01:15:36;;;;;;;15.70;3.37;;;5.90;99.90;;;;;;463245;257;27957;-80
2022/12/30 01:17:37;;;;;;;17.05;3.50;;;5.90;99.90;;;;;;463221;257;28010;-79
2022/12/30 01:19:39;;;;;;;8.57;2.80;;;5.80;99.90;;;;;;463245;257;27571;-80
2022/12/30 01:21:40;;;;;;;14.20;2.78;;;5.80;99.90;;;;;;463261;257;27578;-79
2022/12/30 01:23:41;;;;;;;16.08;3.20;;;5.70;99.90;;;;;;463273;257;27440;-79
2022/12/30 01:25:42;;;;;;;7.28;2.78;;;5.70;99.90;;;;;;463227;257;27575;-75
2022/12/30 01:27:44;;;;;;;12.85;2.65;;;5.70;99.90;;;;;;463225;257;28241;-79
2022/12/30 01:29:45;;;;;;;8.52;2.97;;;5.70;99.90;;;;;;463254;257;27917;-75
2022/12/30 01:31:46;;;;;;;9.27;2.60;;;5.60;99.90;;;;;;463209;257;27554;-76
2022/12/30 01:33:47;;;;;;;7.18;2.28;;;5.60;99.90;;;;;;463223;257;27434;-76
2022/12/30 01:35:49;;;;;;;12.45;2.90;;;5.60;99.90;;;;;;463220;257;27475;-80
2022/12/30 01:37:50;;;;;;;8.23;2.75;;;5.60;99.90;;;;;;463195;257;27506;-75
2022/12/30 01:39:51;;;;;;;14.10;2.95;;;5.60;99.90;;;;;;463238;257;27559;-74
2022/12/30 01:41:52;;;;;;;10.75;2.97;;;5.60;99.90;;;;;;463260;257;28090;-76
2022/12/30 01:43:54;;;;;;;10.57;2.80;;;5.50;99.90;;;;;;463229;257;27442;-76
2022/12/30 01:45:55;;;;;;;7.40;2.33;;;5.50;99.90;;;;;;463254;257;27583;-80
2022/12/30 01:47:56;;;;;;;8.38;2.55;;;5.50;99.90;;;;;;463191;257;27557;-74
2022/12/30 01:49:57;;;;;;;13.95;3.53;;;5.50;99.90;;;;;;463240;257;27478;-74
2022/12/30 01:51:59;;;;;;;13.93;3.00;;;5.50;99.90;;;;;;463236;257;27487;-79
2022/12/30 01:54:00;;;;;;;10.10;2.45;;;5.40;99.90;;;;;;463217;257;27911;-79
2022/12/30 01:56:01;;;;;;;7.85;2.90;;;5.40;99.90;;;;;;463226;257;27522;-74
2022/12/30 01:58:02;;;;;;;14.87;3.20;;;5.40;99.90;;;;;;463216;257;27483;-79
2022/12/30 02:00:04;;;;;;;7.30;2.45;;;5.40;99.90;;;;;;463234;257;27535;-75
2022/12/30 02:02:05;;;;;;;8.85;3.12;;;5.40;99.90;;;;;;463231;257;27558;-75
2022/12/30 02:04:06;;;;;;;9.02;2.75;;;5.40;99.90;;;;;;463206;257;27563;-74
2022/12/30 02:06:08;;;;;;;17.10;3.45;;;5.40;99.90;;;;;;463204;257;27953;-74
2022/12/30 02:08:09;;;;;;;5.40;2.50;;;5.40;99.90;;;;;;463204;257;28061;-80
2022/12/30 02:10:10;;;;;;;10.68;3.00;;;5.40;99.90;;;;;;463241;257;27560;-79
2022/12/30 02:12:11;;;;;;;12.93;3.20;;;5.40;99.90;;;;;;463238;257;27610;-79
2022/12/30 02:14:13;;;;;;;8.32;3.03;;;5.40;99.90;;;;;;463226;257;27451;-74
2022/12/30 02:16:14;;;;;;;12.70;2.58;;;5.40;99.90;;;;;;463216;257;27598;-79
2022/12/30 02:18:15;;;;;;;15.57;3.00;;;5.60;99.90;;;;;;463239;257;27495;-77
2022/12/30 02:20:16;;;;;;;9.05;3.72;;;5.60;99.90;;;;;;463244;257;28058;-75
2022/12/30 02:22:18;;;;;;;17.05;3.58;;;5.70;99.90;;;;;;463194;257;28122;-80
2022/12/30 02:24:19;;;;;;;19.50;3.60;;;5.70;99.90;;;;;;463229;257;27467;-79
2022/12/30 02:26:20;;;;;;;8.98;2.60;;;5.60;99.90;;;;;;463200;257;27559;-75
2022/12/30 02:28:21;;;;;;;10.32;3.62;;;5.60;99.90;;;;;;463231;257;27579;-74
2022/12/30 02:30:23;;;;;;;13.18;3.10;;;5.50;99.90;;;;;;463231;257;27443;-77
2022/12/30 02:32:24;;;;;;;11.77;3.75;;;5.50;99.90;;;;;;463223;257;27959;-77
2022/12/30 02:34:25;;;;;;;10.55;3.20;;;5.50;99.90;;;;;;463210;251;27902;-75
2022/12/30 02:36:26;;;;;;;18.55;3.80;;;5.60;99.90;;;;;;463199;257;27478;-74
2022/12/30 02:38:28;;;;;;;13.77;3.17;;;5.60;99.90;;;;;;463248;257;27486;-77
2022/12/30 02:44:36;;;;;;;12.35;2.97;;;5.70;99.90;;;;;;463216;257;27455;-75
2022/12/30 02:44:50;;;;;;;14.57;3.67;;;5.70;99.90;;;;;;463227;257;27977;-76
2022/12/30 02:46:51;;;;;;;8.48;2.85;;;5.80;99.90;;;;;;463259;257;27452;-75
2022/12/30 02:48:52;;;;;;;11.18;3.47;;;5.80;99.90;;;;;;463234;257;27614;-76
2022/12/30 02:53:13;;;;;;;8.43;3.10;;;5.90;99.90;;;;;;463226;256;27435;-76
2022/12/30 02:55:15;;;;;;;12.10;3.42;;;5.90;99.90;;;;;;463249;257;27617;-79
2022/12/30 02:57:16;;;;;;;9.80;3.17;;;5.90;99.90;;;;;;463220;257;28056;-79
2022/12/30 03:03:59;;;;;;;11.77;3.10;;;5.70;99.90;;;;;;463244;257;28160;-75
2022/12/30 03:06:00;;;;;;;6.37;2.95;;;5.80;99.90;;;;;;463238;257;27507;-75
2022/12/30 03:08:02;;;;;;;16.30;4.05;;;5.80;99.90;;;;;;463234;257;27534;-76
2022/12/30 03:12:23;;;;;;;9.68;3.50;;;5.90;99.90;;;;;;463240;257;27491;-74
2022/12/30 03:14:24;;;;;;;17.08;4.32;;;5.90;99.90;;;;;;463216;257;27938;-75
2022/12/30 03:16:25;;;;;;;12.23;4.15;;;5.90;99.90;;;;;;463216;257;27976;-74
2022/12/30 03:18:26;;;;;;;8.32;3.20;;;5.90;99.90;;;;;;463219;257;27491;-76
2022/12/30 03:20:28;;;;;;;10.45;3.85;;;5.90;99.90;;;;;;463215;257;27467;-76
2022/12/30 03:27:08;;;;;;;8.63;3.60;;;5.90;99.90;;;;;;463240;256;27897;-75
2022/12/30 03:29:09;;;;;;;10.23;3.85;;;5.90;99.90;;;;;;463239;257;27571;-77
2022/12/30 03:31:11;;;;;;;6.40;4.07;;;5.90;99.90;;;;;;463184;257;27526;-74
2022/12/30 03:33:12;;;;;;;9.85;4.15;;;5.90;99.90;;;;;;463208;257;27585;-77
2022/12/30 03:35:13;;;;;;;10.35;3.55;;;5.90;99.90;;;;;;463221;257;27824;-76
2022/12/30 03:37:14;;;;;;;15.25;4.78;;;5.90;99.90;;;;;;463237;257;28023;-75
2022/12/30 03:39:16;;;;;;;17.12;4.07;;;5.90;99.90;;;;;;463254;257;27523;-79
2022/12/30 03:41:17;;;;;;;11.02;3.65;;;5.90;99.90;;;;;;463203;257;28044;-78
2022/12/30 03:43:18;;;;;;;5.30;3.28;;;5.90;99.90;;;;;;463186;257;27471;-76
2022/12/30 03:45:19;;;;;;;12.13;3.70;;;5.90;99.90;;;;;;463227;257;27486;-75
2022/12/30 03:47:21;;;;;;;5.90;3.10;;;5.90;99.90;;;;;;463230;257;27423;-79
2022/12/30 03:49:22;;;;;;;8.80;3.65;;;5.80;99.90;;;;;;463192;257;27543;-79
2022/12/30 03:51:23;;;;;;;9.98;3.03;;;5.80;99.90;;;;;;463205;257;27444;-79
2022/12/30 03:53:24;;;;;;;9.93;3.53;;;5.70;99.90;;;;;;463202;257;27947;-74
2022/12/30 03:55:26;;;;;;;12.32;2.87;;;5.70;99.90;;;;;;463243;257;27961;-76
2022/12/30 03:57:27;;;;;;;13.70;3.53;;;5.70;99.90;;;;;;463233;257;27512;-76
2022/12/30 03:59:28;;;;;;;6.93;3.25;;;5.60;99.90;;;;;;463221;257;27577;-75
2022/12/30 04:01:29;;;;;;;16.45;3.45;;;5.50;99.90;;;;;;463218;257;27615;-80
2022/12/30 04:03:31;;;;;;;9.82;3.10;;;5.50;99.90;;;;;;463222;257;27451;-75
2022/12/30 04:05:32;;;;;;;6.82;2.83;;;5.50;99.90;;;;;;463223;257;27483;-75
2022/12/30 04:07:34;;;;;;;11.00;3.00;;;5.40;99.90;;;;;;463179;257;28003;-75
2022/12/30 04:09:34;;;;;;;6.72;2.70;;;5.40;99.90;;;;;;463207;257;27973;-79
2022/12/30 04:11:36;;;;;;;9.52;3.25;;;5.40;99.90;;;;;;463225;257;27501;-76
2022/12/30 04:13:37;;;;;;;5.12;2.62;;;5.40;99.90;;;;;;463228;257;27479;-74
2022/12/30 04:15:38;;;;;;;7.18;2.40;;;5.50;99.90;;;;;;463196;257;27482;-75
2022/12/30 04:17:39;;;;;;;8.48;3.47;;;5.50;99.90;;;;;;463189;257;27446;-74
2022/12/30 04:19:41;;;;;;;7.40;2.80;;;5.50;99.90;;;;;;463217;257;27587;-74
2022/12/30 04:21:42;;;;;;;9.43;2.80;;;5.60;99.90;;;;;;463236;257;28062;-79
2022/12/30 04:23:43;;;;;;;5.47;2.28;;;5.50;99.90;;;;;;463233;257;27966;-79
2022/12/30 04:25:45;;;;;;;14.50;3.30;;;5.60;99.90;;;;;;463199;257;27485;-75
2022/12/30 04:27:46;;;;;;;7.12;2.30;;;5.60;99.90;;;;;;463184;257;27522;-76
2022/12/30 04:29:47;;;;;;;13.62;4.10;;;5.50;99.90;;;;;;463215;257;27623;-79
2022/12/30 04:31:48;;;;;;;10.88;3.00;;;5.50;99.90;;;;;;463226;257;27495;-80
2022/12/30 04:33:50;;;;;;;10.38;2.70;;;5.50;99.90;;;;;;463177;257;27986;-75
2022/12/30 04:35:51;;;;;;;8.20;2.42;;;5.50;99.90;;;;;;463174;257;27993;-74
2022/12/30 04:37:52;;;;;;;7.60;2.97;;;5.50;99.90;;;;;;463196;257;27486;-79
2022/12/30 04:39:53;;;;;;;21.60;3.60;;;5.50;99.90;;;;;;463236;257;27455;-80
2022/12/30 04:41:55;;;;;;;11.27;3.65;;;5.50;99.90;;;;;;463228;257;27510;-79
2022/12/30 04:43:56;;;;;;;7.43;2.45;;;5.60;99.90;;;;;;463221;257;27450;-80
2022/12/30 04:45:57;;;;;;;8.73;3.00;;;5.60;99.90;;;;;;463240;257;27571;-79
2022/12/30 04:47:58;;;;;;;10.82;3.00;;;5.60;99.90;;;;;;463218;257;28065;-79
2022/12/30 04:50:00;;;;;;;6.30;2.65;;;5.60;99.90;;;;;;463229;257;27993;-79
2022/12/30 04:52:01;;;;;;;8.70;3.05;;;5.70;99.90;;;;;;463224;257;27535;-79
2022/12/30 04:54:02;;;;;;;9.15;2.40;;;5.60;99.90;;;;;;463174;257;27455;-81
2022/12/30 04:56:03;;;;;;;6.30;2.85;;;5.70;99.90;;;;;;463225;257;27499;-79
2022/12/30 04:58:05;;;;;;;10.60;2.80;;;5.70;99.90;;;;;;463230;257;27472;-79
2022/12/30 05:00:06;;;;;;;8.65;2.97;;;5.70;99.90;;;;;;463202;257;27465;-77
2022/12/30 05:02:07;;;;;;;4.68;2.35;;;5.80;99.90;;;;;;463212;257;27965;-76
2022/12/30 05:04:08;;;;;;;10.88;3.30;;;5.80;99.90;;;;;;463179;257;28077;-76
2022/12/30 05:06:10;;;;;;;14.07;3.70;;;5.80;99.90;;;;;;463213;257;27585;-79
2022/12/30 05:08:11;;;;;;;13.07;3.08;;;5.80;99.90;;;;;;463272;257;27818;-79
2022/12/30 05:10:12;;;;;;;9.05;2.53;;;5.90;99.90;;;;;;463255;257;27552;-79
2022/12/30 05:12:13;;;;;;;10.20;2.62;;;5.80;99.90;;;;;;463083;257;27478;-77
2022/12/30 05:14:15;;;;;;;9.30;2.83;;;5.90;99.90;;;;;;463240;257;27960;-78
2022/12/30 05:16:16;;;;;;;7.40;2.75;;;5.90;99.90;;;;;;463228;257;27494;-79
2022/12/30 05:18:17;;;;;;;9.27;2.92;;;5.90;99.90;;;;;;463247;257;27486;-80
2022/12/30 05:20:19;;;;;;;17.67;3.50;;;5.90;99.90;;;;;;463245;257;27444;-76
2022/12/30 05:22:20;;;;;;;13.62;3.80;;;5.90;99.90;;;;;;463225;257;27489;-77
2022/12/30 05:26:41;;;;;;;8.90;2.30;;;5.90;99.90;;;;;;463205;257;27443;-77
2022/12/30 05:28:42;;;;;;;9.00;2.90;;;6.00;99.90;;;;;;463189;257;27583;-76
2022/12/30 05:30:43;;;;;;;7.50;2.60;;;6.00;99.90;;;;;;463188;257;27999;-76
2022/12/30 05:32:44;;;;;;;16.35;2.78;;;6.00;99.90;;;;;;463162;257;27988;-77
2022/12/30 05:34:46;;;;;;;8.00;2.58;;;6.00;99.90;;;;;;463225;257;27544;-79
2022/12/30 05:36:47;;;;;;;5.60;2.40;;;6.00;99.90;;;;;;463245;257;27461;-79
2022/12/30 05:38:48;;;;;;;10.07;3.25;;;6.00;99.90;;;;;;463222;257;27555;-79
2022/12/30 05:40:50;;;;;;;11.18;2.22;;;5.90;99.90;;;;;;463211;257;27440;-77
2022/12/30 05:42:51;;;;;;;12.25;2.40;;;6.00;99.90;;;;;;463207;257;27962;-76
2022/12/30 05:44:52;;;;;;;14.98;2.95;;;6.00;99.90;;;;;;463275;257;27978;-78
2022/12/30 05:46:53;;;;;;;11.75;2.83;;;6.00;99.90;;;;;;463223;257;27450;-76
2022/12/30 05:48:55;;;;;;;10.90;2.55;;;6.00;99.90;;;;;;463229;257;27511;-78
2022/12/30 05:50:56;;;;;;;10.30;2.60;;;6.00;99.90;;;;;;463214;257;27588;-77
2022/12/30 05:52:58;;;;;;;8.82;2.67;;;6.10;99.90;;;;;;463218;257;27612;-77
2022/12/30 05:54:58;;;;;;;6.53;2.63;;;6.00;99.90;;;;;;463201;257;29119;-77
2022/12/30 05:57:00;;;;;;;7.15;2.12;;;6.10;99.90;;;;;;463229;257;29295;-76
2022/12/30 05:59:01;;;;;;;6.50;2.40;;;6.10;99.90;;;;;;463245;257;27491;-78
2022/12/30 06:01:02;;;;;;;10.95;2.22;;;6.10;99.90;;;;;;463192;257;27505;-76
2022/12/30 06:03:03;;;;;;;9.25;3.17;;;6.10;99.90;;;;;;463180;257;27502;-78
2022/12/30 06:05:05;;;;;;;7.50;2.75;;;6.10;99.90;;;;;;463175;256;27512;-77
2022/12/30 06:07:06;;;;;;;9.68;2.25;;;6.10;99.90;;;;;;463207;257;27527;-78
2022/12/30 06:09:08;;;;;;;9.75;2.80;;;6.20;99.90;;;;;;463235;257;28085;-78
2022/12/30 06:11:08;;;;;;;5.80;2.62;;;6.10;99.90;;;;;;463228;257;27972;-79
2022/12/30 06:13:10;;;;;;;12.70;2.60;;;6.20;99.90;;;;;;463228;257;27540;-77
2022/12/30 06:15:11;;;;;;;12.45;2.95;;;6.20;99.90;;;;;;463221;257;27528;-79
2022/12/30 06:17:12;;;;;;;7.30;2.50;;;6.20;99.90;;;;;;463242;257;27600;-79
2022/12/30 06:19:13;;;;;;;7.57;2.67;;;6.20;99.90;;;;;;463252;257;27531;-77
2022/12/30 06:21:15;;;;;;;10.23;2.75;;;6.20;99.90;;;;;;463198;257;27989;-76
2022/12/30 06:23:16;;;;;;;4.93;2.17;;;6.20;99.90;;;;;;463235;257;28282;-79
2022/12/30 06:25:17;;;;;;;8.15;2.50;;;6.20;99.90;;;;;;463235;257;27439;-79
2022/12/30 06:27:18;;;;;;;11.52;2.87;;;6.20;99.90;;;;;;463225;257;27563;-79
2022/12/30 06:29:20;;;;;;;4.55;2.05;;;6.20;99.90;;;;;;463226;257;27488;-79
2022/12/30 06:31:21;;;;;;;4.73;2.20;;;6.20;99.90;;;;;;463233;257;27566;-78
2022/12/30 06:33:23;;;;;;;7.18;2.25;;;6.20;99.90;;;;;;463215;257;28499;-78
2022/12/30 06:35:23;;;;;;;9.35;2.47;;;6.20;99.90;;;;;;463217;257;27904;-76
2022/12/30 06:37:25;;;;;;;12.65;2.83;;;6.10;99.90;;;;;;463257;257;27916;-76
2022/12/30 06:39:26;;;;;;;8.00;2.28;;;6.10;99.90;;;;;;463088;257;27502;-79
2022/12/30 06:41:27;;;;;;;4.55;2.03;;;6.00;99.90;;;;;;463267;257;27447;-79
2022/12/30 06:43:29;;;;;;;5.43;2.40;;;5.90;99.90;;;;;;463246;257;27564;-76
2022/12/30 06:45:30;;;;;;;5.13;2.10;;;5.80;99.90;;;;;;463245;257;27520;-78
2022/12/30 06:47:31;;;;;;;13.90;2.80;;;5.80;99.90;;;;;;463247;257;28820;-77
2022/12/30 06:49:32;;;;;;;8.20;2.08;;;5.80;99.90;;;;;;463237;257;28047;-79
2022/12/30 06:51:34;;;;;;;6.40;2.45;;;5.80;99.90;;;;;;463222;257;27898;-76
2022/12/30 06:53:35;;;;;;;8.00;2.78;;;5.90;99.90;;;;;;463211;257;27562;-76
2022/12/30 06:55:36;;;;;;;6.35;2.67;;;6.00;99.90;;;;;;463222;257;27460;-79
2022/12/30 06:57:37;;;;;;;4.00;1.98;;;5.90;99.90;;;;;;463264;257;27536;-79
2022/12/30 06:59:39;;;;;;;6.70;2.22;;;5.90;99.90;;;;;;463233;257;27571;-78
2022/12/30 07:01:40;;;;;;;5.22;2.12;;;5.80;99.90;;;;;;463220;257;27444;-78
2022/12/30 07:03:41;;;;;;;8.10;2.70;;;5.70;99.90;;;;;;463202;257;27966;-75
2022/12/30 07:05:42;;;;;;;10.35;2.20;;;5.60;99.90;;;;;;463218;257;28137;-78
2022/12/30 07:07:44;;;;;;;5.28;1.60;;;5.60;99.90;;;;;;463227;257;27512;-77
2022/12/30 07:09:45;;;;;;;4.82;2.10;;;5.60;99.90;;;;;;463211;257;27489;-78
2022/12/30 07:11:46;;;;;;;5.47;2.25;;;5.60;99.90;;;;;;463214;257;27530;-78
2022/12/30 07:13:47;;;;;;;3.42;1.55;;;5.60;99.90;;;;;;463196;257;27510;-76
2022/12/30 07:15:49;;;;;;;4.37;1.75;;;5.60;99.90;;;;;;463214;257;27590;-77
2022/12/30 07:17:50;;;;;;;3.58;1.95;;;5.60;99.90;;;;;;463225;257;27987;-78
2022/12/30 07:19:51;;;;;;;4.35;1.70;;;5.60;99.90;;;;;;463230;257;27996;-79
2022/12/30 07:21:52;;;;;;;3.97;1.90;;;5.60;99.90;;;;;;463222;257;27554;-78
2022/12/30 07:23:54;;;;;;;5.87;2.45;;;5.70;99.90;;;;;;463213;257;27487;-75
2022/12/30 07:25:55;;;;;;;9.10;2.20;;;5.70;99.90;;;;;;463253;257;27499;-78
2022/12/30 07:27:57;;;;;;;3.75;1.75;;;5.80;99.90;;;;;;463140;257;27540;-79
2022/12/30 07:29:57;;;;;;;7.97;2.30;;;5.80;99.90;;;;;;463172;257;27484;-80
2022/12/30 07:31:59;;;;;;;8.07;2.33;;;5.80;99.90;;;;;;463187;257;27953;-75
2022/12/30 07:34:00;;;;;;;12.02;2.03;;;5.80;99.90;;;;;;463197;257;28082;-76
2022/12/30 07:36:01;;;;;;;5.85;2.20;;;5.90;99.90;;;;;;463222;257;27552;-78
2022/12/30 07:38:03;;;;;;;8.43;2.15;;;5.90;99.90;;;;;;463181;257;27613;-79
2022/12/30 07:40:04;;;;;;;4.90;2.05;;;6.00;99.90;;;;;;463138;257;27569;-78
2022/12/30 07:42:05;;;;;;;12.30;3.13;;;6.00;99.90;;;;;;463173;257;27455;-76
2022/12/30 07:44:06;;;;;;;6.50;2.20;;;6.00;99.90;;;;;;463162;257;28422;-78
2022/12/30 07:46:08;;;;;;;5.25;2.20;;;6.00;99.90;;;;;;463240;257;27954;-80
2022/12/30 07:48:09;;;;;;;7.55;2.50;;;6.00;99.90;;;;;;463210;257;28068;-77
2022/12/30 07:50:10;;;;;;;11.15;3.15;;;6.00;99.90;;;;;;463183;257;27551;-78
2022/12/30 07:52:11;;;;;;;5.95;2.03;;;6.00;99.90;;;;;;463204;257;27512;-77
2022/12/30 07:54:13;;;;;;;6.68;2.53;;;6.00;99.90;;;;;;463237;257;27459;-79
2022/12/30 07:56:14;;;;;;;8.38;2.12;;;6.00;99.90;;;;;;463211;257;27567;-76
2022/12/30 07:58:15;;;;;;;7.65;1.95;;;6.10;99.90;;;;;;463192;257;27508;-76
2022/12/30 08:00:16;;;;;;;5.50;2.05;;;6.10;99.90;;;;;;463216;257;28078;-77
2022/12/30 08:02:18;;;;;;;7.75;2.40;;;6.20;99.90;;;;;;463201;257;27983;-77
2022/12/30 08:04:19;;;;;;;9.57;2.30;;;6.20;99.90;;;;;;463217;257;27567;-76
2022/12/30 08:06:20;;;;;;;7.45;2.40;;;6.20;99.90;;;;;;463222;257;27482;-78
2022/12/30 08:08:21;;;;;;;8.10;2.00;;;6.10;99.90;;;;;;463237;257;27538;-79
2022/12/30 08:10:23;;;;;;;10.02;2.60;;;6.10;99.90;;;;;;463219;257;27507;-79
2022/12/30 08:12:24;;;;;;;6.13;2.40;;;6.00;99.90;;;;;;463243;257;28114;-78
2022/12/30 08:14:25;;;;;;;7.45;2.33;;;6.00;99.90;;;;;;463124;257;28528;-79
2022/12/30 08:16:26;;;;;;;9.02;2.25;;;6.00;99.90;;;;;;463228;257;28011;-78
2022/12/30 08:18:28;;;;;;;3.87;1.83;;;6.00;99.90;;;;;;463247;257;27550;-80
2022/12/30 08:20:29;;;;;;;9.85;2.60;;;6.00;99.90;;;;;;463201;257;27527;-78
2022/12/30 08:22:30;;;;;;;9.73;2.58;;;6.00;99.90;;;;;;463257;257;27479;-80
2022/12/30 08:24:31;;;;;;;5.60;2.13;;;6.00;99.90;;;;;;463285;257;27566;-79
2022/12/30 08:26:33;;;;;;;6.18;2.15;;;6.00;99.90;;;;;;463246;257;28401;-77
2022/12/30 08:28:34;;;;;;;4.97;1.90;;;6.00;99.90;;;;;;463210;257;27934;-77
2022/12/30 08:30:35;;;;;;;5.78;1.80;;;5.90;99.90;;;;;;463212;257;27956;-77
2022/12/30 08:32:36;;;;;;;8.65;2.15;;;5.90;99.90;;;;;;463223;257;27476;-76
2022/12/30 08:34:38;;;;;;;6.03;1.87;;;5.90;99.90;;;;;;463240;257;27585;-75
2022/12/30 08:36:39;;;;;;;7.53;1.90;;;5.90;99.90;;;;;;463200;257;28599;-78
2022/12/30 08:38:40;;;;;;;7.22;2.10;;;5.90;99.90;;;;;;463198;257;27899;-77
2022/12/30 08:40:41;;;;;;;4.70;1.75;;;5.90;99.90;;;;;;463192;257;27563;-78
2022/12/30 08:42:43;;;;;;;5.75;2.55;;;5.90;99.90;;;;;;463200;257;27966;-79
2022/12/30 08:44:44;;;;;;;10.88;2.45;;;5.90;99.90;;;;;;463227;257;27907;-80
2022/12/30 08:46:45;;;;;;;3.90;1.85;;;6.00;99.90;;;;;;463218;257;27561;-76
2022/12/30 08:48:47;;;;;;;5.03;2.12;;;6.00;99.90;;;;;;463208;257;27532;-77
2022/12/30 08:50:48;;;;;;;7.37;2.10;;;6.00;99.90;;;;;;463188;257;27644;-79
2022/12/30 08:52:49;;;;;;;7.43;1.75;;;6.00;99.90;;;;;;463201;257;27567;-78
2022/12/30 08:54:50;;;;;;;10.98;2.25;;;6.00;99.90;;;;;;463218;257;27451;-78
2022/12/30 08:56:52;;;;;;;10.15;2.00;;;6.10;99.90;;;;;;463226;257;28125;-78
2022/12/30 08:58:53;;;;;;;4.30;1.65;;;6.10;99.90;;;;;;463242;257;27454;-79
2022/12/30 09:00:54;;;;;;;6.87;2.20;;;6.10;99.90;;;;;;463218;257;27567;-79
2022/12/30 09:02:56;;;;;;;5.10;2.20;;;6.10;99.90;;;;;;463192;256;27446;-77
2022/12/30 09:04:57;;;;;;;4.00;1.70;;;6.20;99.90;;;;;;463197;257;27451;-78
2022/12/30 09:06:58;;;;;;;4.50;2.00;;;6.20;99.90;;;;;;463218;257;28990;-78
2022/12/30 09:08:59;;;;;;;3.80;2.27;;;6.20;99.90;;;;;;463207;257;28854;-76
2022/12/30 09:11:00;;;;;;;8.60;2.43;;;6.30;99.90;;;;;;463180;257;28013;-75
2022/12/30 09:13:02;;;;;;;4.27;2.03;;;6.30;99.90;;;;;;463216;257;30310;-79
2022/12/30 09:15:03;;;;;;;5.22;1.87;;;6.20;99.90;;;;;;463226;257;28103;-77
2022/12/30 09:17:04;;;;;;;3.90;2.00;;;6.30;99.90;;;;;;463238;257;28089;-77
2022/12/30 09:19:05;;;;;;;5.63;2.20;;;6.30;99.90;;;;;;463249;257;28380;-78
2022/12/30 09:21:07;;;;;;;7.53;2.00;;;6.30;99.90;;;;;;463104;257;28938;-76
2022/12/30 09:23:08;;;;;;;8.77;2.60;;;6.40;99.90;;;;;;462557;257;28408;-76
2022/12/30 09:25:09;;;;;;;8.88;2.55;;;6.40;99.90;;;;;;462456;257;28867;-76
2022/12/30 09:27:10;;;;;;;2.80;1.80;;;6.40;99.90;;;;;;462834;257;27491;-76
2022/12/30 09:29:15;;;;;;;4.10;1.87;;;6.50;99.90;;;;;;463213;257;27933;-77
2022/12/30 09:31:13;;;;;;;3.62;1.70;;;6.50;99.90;;;;;;462984;257;29266;-79
2022/12/30 09:33:14;;;;;;;4.00;2.27;;;6.60;99.90;;;;;;463245;257;27546;-78
2022/12/30 09:35:15;;;;;;;4.10;1.73;;;6.70;99.90;;;;;;463266;257;28564;-79
2022/12/30 09:37:17;;;;;;;2.97;1.70;;;6.70;99.90;;;;;;463269;257;28456;-78
2022/12/30 09:39:26;;;;;;;4.70;1.97;;;6.70;99.90;;;;;;463241;257;28301;-79
2022/12/30 09:41:19;;;;;;;7.57;1.70;;;6.80;99.90;;;;;;462638;257;29355;-79
2022/12/30 09:43:20;;;;;;;6.10;2.23;;;6.80;99.90;;;;;;463257;257;29197;-80
2022/12/30 09:45:22;;;;;;;3.53;1.60;;;6.90;99.90;;;;;;463292;257;28893;-79
2022/12/30 09:47:23;;;;;;;3.40;1.73;;;6.90;99.90;;;;;;463282;257;27942;-80
2022/12/30 09:49:24;;;;;;;4.43;1.80;;;6.90;99.90;;;;;;463271;257;28002;-79
2022/12/30 09:51:25;;;;;;;2.20;1.60;;;7.00;99.90;;;;;;463206;257;27947;-79
2022/12/30 09:53:27;;;;;;;4.90;2.03;;;7.00;99.90;;;;;;463255;257;28027;-79
2022/12/30 09:55:28;;;;;;;3.57;1.60;;;7.00;99.90;;;;;;463249;257;28072;-79
2022/12/30 09:57:32;;;;;;;3.53;1.80;;;7.00;99.90;;;;;;463233;257;27882;-79
2022/12/30 09:59:35;;;;;;;2.90;1.70;;;7.10;99.90;;;;;;463216;257;28187;-78
2022/12/30 10:01:35;;;;;;;2.20;2.00;;;7.10;99.90;;;;;;463139;257;28355;-79
2022/12/30 10:03:36;;;;;;;4.60;1.90;;;7.20;99.90;;;;;;463232;257;28696;-79
2022/12/30 10:05:37;;;;;;;2.93;1.50;;;7.20;99.90;;;;;;463273;257;28416;-79
2022/12/30 10:07:38;;;;;;;2.70;1.60;;;7.20;99.90;;;;;;463279;257;28941;-79
2022/12/30 10:09:40;;;;;;;2.90;1.57;;;7.30;99.90;;;;;;463236;257;27978;-79
2022/12/30 10:11:41;;;;;;;4.57;1.40;;;7.30;99.90;;;;;;463226;257;27951;-79
2022/12/30 10:13:42;;;;;;;4.00;1.83;;;7.20;99.90;;;;;;463213;257;28087;-80
2022/12/30 10:15:43;;;;;;;3.03;2.20;;;7.30;99.90;;;;;;463242;257;28093;-79
2022/12/30 10:17:45;;;;;;;4.40;1.57;;;7.30;99.90;;;;;;463252;257;28004;-80
2022/12/30 10:19:46;;;;;;;1.63;1.53;;;7.30;99.90;;;;;;463257;257;28044;-79
2022/12/30 10:21:47;;;;;;;6.57;2.27;;;7.30;99.90;;;;;;463242;257;28025;-80
2022/12/30 10:23:48;;;;;;;3.70;1.80;;;7.30;99.90;;;;;;463211;257;27988;-79
2022/12/30 10:25:50;;;;;;;3.93;1.47;;;7.30;99.90;;;;;;463220;256;28043;-79
2022/12/30 10:27:51;;;;;;;3.33;1.67;;;7.40;99.90;;;;;;463233;257;27948;-79
2022/12/30 10:29:52;;;;;;;3.40;1.60;;;7.40;99.90;;;;;;463225;257;27514;-80
2022/12/30 10:31:53;;;;;;;3.87;1.70;;;7.40;99.90;;;;;;463230;257;28068;-78
2022/12/30 10:33:55;;;;;;;1.77;1.67;;;7.50;99.90;;;;;;463212;257;28028;-80
2022/12/30 10:35:58;;;;;;;4.17;2.00;;;7.50;99.90;;;;;;463220;257;27959;-79
2022/12/30 10:37:59;;;;;;;2.93;1.90;;;7.50;99.90;;;;;;463246;257;28439;-78
2022/12/30 10:40:00;;;;;;;6.10;2.13;;;7.50;99.90;;;;;;463207;257;28062;-77
2022/12/30 10:42:02;;;;;;;2.70;1.43;;;7.50;99.90;;;;;;463227;257;27788;-79
2022/12/30 10:44:03;;;;;;;10.30;2.50;;;7.40;99.90;;;;;;463228;257;27616;-79
2022/12/30 10:46:04;;;;;;;4.90;1.67;;;7.40;99.90;;;;;;463251;257;27970;-78
2022/12/30 10:48:05;;;;;;;3.80;1.70;;;7.40;99.90;;;;;;463271;257;27937;-79
2022/12/30 10:50:07;;;;;;;2.20;1.50;;;7.40;99.90;;;;;;463258;257;28003;-79
2022/12/30 10:52:08;;;;;;;1.70;1.47;;;7.50;99.90;;;;;;463231;257;27951;-79
2022/12/30 10:54:09;;;;;;;8.70;2.23;;;7.50;99.90;;;;;;463241;257;28004;-79
2022/12/30 10:56:10;;;;;;;1.70;1.60;;;7.50;99.90;;;;;;463227;257;28051;-79
2022/12/30 10:58:12;;;;;;;1.70;1.60;;;7.60;99.90;;;;;;463251;257;27932;-79
2022/12/30 11:00:13;;;;;;;5.47;1.80;;;7.60;99.90;;;;;;463239;257;27954;-79
2022/12/30 11:02:14;;;;;;;3.77;1.80;;;7.50;99.90;;;;;;463243;257;27814;-79
2022/12/30 11:04:15;;;;;;;3.87;1.50;;;7.60;99.90;;;;;;463192;257;28157;-78
2022/12/30 11:06:17;;;;;;;1.83;1.40;;;7.50;99.90;;;;;;463219;257;29263;-79
2022/12/30 11:08:18;;;;;;;2.47;1.60;;;7.60;99.90;;;;;;463194;257;28286;-79
2022/12/30 11:10:19;;;;;;;2.00;1.40;;;7.70;99.90;;;;;;463209;257;28594;-79
2022/12/30 11:14:43;;;;;;;2.10;1.90;;;7.60;99.90;;;;;;463228;257;28358;-77
2022/12/30 11:16:44;;;;;;;2.23;1.53;;;7.60;99.90;;;;;;463239;257;28016;-79
2022/12/30 11:18:45;;;;;;;3.40;1.57;;;7.50;99.90;;;;;;463214;257;29467;-79
2022/12/30 11:20:46;;;;;;;1.40;1.20;;;7.50;99.90;;;;;;463257;257;28577;-79
2022/12/30 11:22:48;;;;;;;3.17;1.60;;;7.50;99.90;;;;;;463275;257;28427;-79
2022/12/30 11:24:49;;;;;;;1.80;1.30;;;7.50;99.90;;;;;;463250;257;27935;-79
2022/12/30 11:26:50;;;;;;;1.93;1.47;;;7.50;99.90;;;;;;463233;257;28041;-78
2022/12/30 11:28:51;;;;;;;2.47;1.70;;;7.50;99.90;;;;;;463246;257;27834;-79
2022/12/30 11:30:53;;;;;;;3.53;1.43;;;7.50;99.90;;;;;;463274;257;27804;-79